Time;durP1;ratioP1;P1;durP2;ratioP2;P2;SDS_P1;SDS_P2;PMS_P1;PMS_P2;Temp;Humidity;BMP_temperature;BMP_pressure;BME280_temperature;BME280_humidity;BME280_pressure;Samples;Min_cycle;Max_cycle;Signal;HPM_P1;HPM_P2
2023/09/02 00:00:51;;;;;;;18.55;4.20;;;;;;;;;;4983290;28;20480;-82
2023/09/02 00:03:17;;;;;;;17.45;3.60;;;;;;;;;;4984701;28;20423;-80
2023/09/02 00:05:45;;;;;;;17.38;3.97;;;;;;;;;;4996878;28;20447;-80
2023/09/02 00:08:11;;;;;;;17.73;4.00;;;;;;;;;;4990233;28;20420;-80
2023/09/02 00:10:38;;;;;;;17.38;3.58;;;;;;;;;;4990295;28;20969;-80
2023/09/02 00:13:04;;;;;;;17.20;3.30;;;;;;;;;;4988655;28;20488;-78
2023/09/02 00:15:32;;;;;;;17.40;3.40;;;;;;;;;;4974456;28;20412;-79
2023/09/02 00:17:59;;;;;;;16.73;3.47;;;;;;;;;;4983497;28;20415;-82
2023/09/02 00:20:26;;;;;;;17.90;3.70;;;;;;;;;;4982086;28;20494;-79
2023/09/02 00:22:53;;;;;;;16.70;3.40;;;;;;;;;;4991517;28;20424;-81
2023/09/02 00:25:22;;;;;;;16.23;3.22;;;;;;;;;;4990282;28;20418;-80
2023/09/02 00:27:48;;;;;;;17.30;3.63;;;;;;;;;;4983708;28;20477;-80
2023/09/02 00:30:15;;;;;;;18.65;3.67;;;;;;;;;;4987050;28;20414;-80
2023/09/02 00:32:43;;;;;;;16.52;3.30;;;;;;;;;;4990530;28;20405;-79
2023/09/02 00:35:10;;;;;;;16.88;3.45;;;;;;;;;;5007450;28;20505;-80
2023/09/02 00:37:36;;;;;;;16.83;3.67;;;;;;;;;;5015101;28;20414;-79
2023/09/02 00:40:04;;;;;;;16.53;3.43;;;;;;;;;;4981240;28;20975;-80
2023/09/02 00:42:31;;;;;;;16.27;3.20;;;;;;;;;;4989569;28;20466;-81
2023/09/02 00:44:57;;;;;;;16.98;3.80;;;;;;;;;;4986860;28;20426;-79
2023/09/02 00:47:25;;;;;;;16.70;3.50;;;;;;;;;;4982552;28;20460;-80
2023/09/02 00:49:53;;;;;;;17.97;3.80;;;;;;;;;;5000092;28;20420;-80
2023/09/02 00:52:20;;;;;;;16.88;3.60;;;;;;;;;;4969163;28;20469;-79
2023/09/02 00:54:46;;;;;;;17.45;4.30;;;;;;;;;;4979959;28;20412;-82
2023/09/02 00:57:13;;;;;;;18.35;4.13;;;;;;;;;;4984055;28;20420;-80
2023/09/02 00:59:39;;;;;;;17.02;3.50;;;;;;;;;;4981982;28;20516;-81
2023/09/02 01:02:07;;;;;;;19.23;3.90;;;;;;;;;;4974739;28;20423;-80
2023/09/02 01:04:34;;;;;;;17.00;4.00;;;;;;;;;;4985264;28;20911;-80
2023/09/02 01:07:03;;;;;;;16.80;4.00;;;;;;;;;;4985791;28;20432;-80
2023/09/02 01:09:30;;;;;;;20.77;4.38;;;;;;;;;;4978559;28;20834;-80
2023/09/02 01:11:57;;;;;;;19.27;4.50;;;;;;;;;;4981052;28;20505;-80
2023/09/02 01:14:25;;;;;;;19.13;4.10;;;;;;;;;;5015181;28;20921;-80
2023/09/02 01:16:52;;;;;;;17.27;3.85;;;;;;;;;;4979116;28;20955;-80
2023/09/02 01:19:19;;;;;;;17.55;4.30;;;;;;;;;;4974124;28;20451;-80
2023/09/02 01:21:55;;;;;;;19.40;4.40;;;;;;;;;;4980043;28;20561;-79
2023/09/02 01:24:35;;;;;;;18.30;4.05;;;;;;;;;;4984913;28;20418;-79
2023/09/02 01:27:10;;;;;;;18.88;3.80;;;;;;;;;;5010328;28;20482;-81
2023/09/02 01:29:43;;;;;;;20.20;4.07;;;;;;;;;;4979232;28;20916;-80
2023/09/02 01:32:12;;;;;;;18.05;3.85;;;;;;;;;;4981274;28;20408;-80
2023/09/02 01:34:41;;;;;;;17.23;4.40;;;;;;;;;;4981076;28;20416;-79
2023/09/02 01:37:08;;;;;;;17.67;4.00;;;;;;;;;;4986675;28;20412;-81
2023/09/02 01:39:36;;;;;;;19.08;4.20;;;;;;;;;;4980271;28;20418;-80
2023/09/02 01:42:04;;;;;;;20.63;4.40;;;;;;;;;;4981130;28;20430;-80
2023/09/02 01:44:32;;;;;;;17.13;3.95;;;;;;;;;;4990461;28;20455;-80
2023/09/02 01:47:01;;;;;;;17.47;4.20;;;;;;;;;;4989619;28;21063;-80
2023/09/02 01:49:28;;;;;;;18.57;3.93;;;;;;;;;;4988510;28;20914;-80
2023/09/02 01:51:56;;;;;;;17.75;3.90;;;;;;;;;;4987659;28;20483;-82
2023/09/02 01:54:23;;;;;;;17.58;4.50;;;;;;;;;;4980715;28;20418;-79
2023/09/02 01:56:49;;;;;;;17.00;3.90;;;;;;;;;;4979524;28;20443;-79
2023/09/02 01:59:16;;;;;;;17.50;4.07;;;;;;;;;;4972944;28;20439;-80
2023/09/02 02:01:44;;;;;;;18.88;4.40;;;;;;;;;;4988225;28;20855;-80
2023/09/02 02:04:15;;;;;;;19.23;4.10;;;;;;;;;;4988547;28;20507;-81
2023/09/02 02:06:44;;;;;;;17.98;3.92;;;;;;;;;;4981095;28;20505;-80
2023/09/02 02:09:12;;;;;;;18.33;4.25;;;;;;;;;;4987600;28;20428;-80
2023/09/02 02:11:39;;;;;;;18.77;4.00;;;;;;;;;;4972154;28;20452;-82
2023/09/02 02:14:06;;;;;;;19.40;4.35;;;;;;;;;;4981913;28;20420;-80
2023/09/02 02:16:32;;;;;;;18.20;4.50;;;;;;;;;;4985937;28;20922;-80
2023/09/02 02:19:02;;;;;;;18.25;4.57;;;;;;;;;;4989113;28;20461;-81
2023/09/02 02:21:30;;;;;;;18.70;4.80;;;;;;;;;;4984917;28;20476;-81
2023/09/02 02:23:57;;;;;;;18.45;4.85;;;;;;;;;;4985211;28;20416;-82
2023/09/02 02:26:24;;;;;;;20.00;4.32;;;;;;;;;;4983510;28;20421;-81
2023/09/02 02:28:50;;;;;;;19.55;4.50;;;;;;;;;;4988088;28;20423;-81
2023/09/02 02:31:17;;;;;;;18.23;4.65;;;;;;;;;;4983404;28;20410;-81
2023/09/02 02:33:44;;;;;;;19.65;4.70;;;;;;;;;;4981170;28;20419;-81
2023/09/02 02:36:12;;;;;;;19.23;4.60;;;;;;;;;;4979897;28;20429;-80
2023/09/02 02:38:38;;;;;;;18.27;4.43;;;;;;;;;;4988113;28;20420;-80
2023/09/02 02:41:05;;;;;;;19.00;4.85;;;;;;;;;;4986907;28;20431;-80
2023/09/02 02:43:31;;;;;;;18.17;4.45;;;;;;;;;;4987556;28;20442;-81
2023/09/02 02:45:58;;;;;;;18.40;4.10;;;;;;;;;;4988138;28;20474;-79
2023/09/02 02:48:26;;;;;;;19.90;4.63;;;;;;;;;;4980062;28;20427;-81
2023/09/02 02:50:53;;;;;;;20.60;4.95;;;;;;;;;;4988477;28;20424;-81
2023/09/02 02:53:21;;;;;;;19.80;5.15;;;;;;;;;;4988054;28;20495;-81
2023/09/02 02:55:48;;;;;;;21.95;5.70;;;;;;;;;;4985254;28;20428;-81
2023/09/02 02:58:17;;;;;;;20.23;5.30;;;;;;;;;;4987407;28;20436;-80
2023/09/02 03:00:44;;;;;;;18.83;4.97;;;;;;;;;;4982900;28;20459;-81
2023/09/02 03:03:11;;;;;;;21.65;5.57;;;;;;;;;;4982220;28;20521;-81
2023/09/02 03:05:39;;;;;;;22.05;5.72;;;;;;;;;;4981410;28;20427;-81
2023/09/02 03:08:07;;;;;;;19.65;4.80;;;;;;;;;;4980906;28;20418;-81
2023/09/02 03:10:37;;;;;;;19.52;4.97;;;;;;;;;;4997114;28;20905;-80
2023/09/02 03:13:04;;;;;;;19.52;5.75;;;;;;;;;;5011858;28;20412;-81
2023/09/02 03:15:32;;;;;;;19.27;4.90;;;;;;;;;;4987845;28;20422;-80
2023/09/02 03:17:59;;;;;;;19.10;4.80;;;;;;;;;;4987541;28;21042;-81
2023/09/02 03:20:28;;;;;;;19.00;4.50;;;;;;;;;;4978903;28;20931;-81
2023/09/02 03:22:56;;;;;;;18.50;4.90;;;;;;;;;;4987353;28;20423;-80
2023/09/02 03:25:23;;;;;;;20.15;4.90;;;;;;;;;;4982607;28;20427;-81
2023/09/02 03:27:52;;;;;;;21.27;4.32;;;;;;;;;;4984784;28;20430;-81
2023/09/02 03:30:21;;;;;;;19.52;5.00;;;;;;;;;;4990424;28;20435;-80
2023/09/02 03:32:48;;;;;;;18.63;4.40;;;;;;;;;;5015803;28;20423;-81
2023/09/02 03:35:14;;;;;;;19.58;4.50;;;;;;;;;;5014303;28;20490;-80
2023/09/02 03:37:41;;;;;;;18.67;4.30;;;;;;;;;;4984628;28;20416;-80
2023/09/02 03:40:08;;;;;;;18.38;4.30;;;;;;;;;;4992211;28;20427;-81
2023/09/02 03:42:35;;;;;;;17.95;4.25;;;;;;;;;;4994628;28;20930;-82
2023/09/02 03:45:04;;;;;;;17.77;4.20;;;;;;;;;;4974783;28;20990;-81
2023/09/02 03:47:31;;;;;;;18.10;4.65;;;;;;;;;;5005685;28;20822;-79
2023/09/02 03:50:00;;;;;;;19.17;4.15;;;;;;;;;;5004407;28;20483;-81
2023/09/02 03:52:28;;;;;;;18.52;4.45;;;;;;;;;;4993682;28;20412;-81
2023/09/02 03:54:55;;;;;;;19.17;4.90;;;;;;;;;;4988609;28;20426;-81
2023/09/02 03:57:22;;;;;;;17.70;3.87;;;;;;;;;;4991357;28;20518;-80
2023/09/02 03:59:49;;;;;;;18.00;4.30;;;;;;;;;;4976328;28;20924;-82
2023/09/02 04:02:18;;;;;;;17.80;4.18;;;;;;;;;;4984586;28;20428;-81
2023/09/02 04:04:44;;;;;;;18.58;4.80;;;;;;;;;;4982605;28;20408;-80
2023/09/02 04:07:11;;;;;;;19.40;4.57;;;;;;;;;;4983790;28;20414;-78
2023/09/02 04:09:38;;;;;;;18.45;4.60;;;;;;;;;;4986200;28;20422;-80
2023/09/02 04:12:06;;;;;;;17.00;3.90;;;;;;;;;;4985293;28;21154;-80
2023/09/02 04:14:32;;;;;;;18.58;4.10;;;;;;;;;;4985192;28;21015;-81
2023/09/02 04:17:00;;;;;;;17.70;4.07;;;;;;;;;;4985114;28;20750;-79
2023/09/02 04:19:28;;;;;;;19.35;4.25;;;;;;;;;;4989381;28;20424;-81
2023/09/02 04:21:55;;;;;;;18.07;3.50;;;;;;;;;;4991116;28;20420;-80
2023/09/02 04:24:22;;;;;;;17.55;3.80;;;;;;;;;;4985427;28;20781;-81
2023/09/02 04:26:48;;;;;;;17.63;4.10;;;;;;;;;;4989290;28;20424;-81
2023/09/02 04:29:15;;;;;;;17.23;3.90;;;;;;;;;;4978667;28;20473;-81
2023/09/02 04:31:42;;;;;;;18.95;4.00;;;;;;;;;;4990780;28;21016;-81
2023/09/02 04:34:09;;;;;;;17.10;4.00;;;;;;;;;;5002567;28;20416;-80
2023/09/02 04:36:37;;;;;;;17.20;3.70;;;;;;;;;;4986463;28;20406;-81
2023/09/02 04:39:04;;;;;;;21.65;4.00;;;;;;;;;;4987591;28;20426;-80
2023/09/02 04:41:31;;;;;;;17.50;3.63;;;;;;;;;;4990213;28;20486;-81
2023/09/02 04:43:58;;;;;;;17.75;4.00;;;;;;;;;;5001518;28;20430;-81
2023/09/02 04:46:25;;;;;;;17.55;4.10;;;;;;;;;;4979727;28;20418;-81
2023/09/02 04:48:52;;;;;;;19.70;3.80;;;;;;;;;;4983453;28;20944;-79
2023/09/02 04:51:19;;;;;;;18.90;3.70;;;;;;;;;;4978302;28;20474;-81
2023/09/02 04:53:48;;;;;;;19.73;4.40;;;;;;;;;;4990635;28;20429;-89
2023/09/02 04:56:15;;;;;;;18.38;4.10;;;;;;;;;;4986231;28;20408;-87
2023/09/02 04:58:41;;;;;;;18.85;4.45;;;;;;;;;;5001251;28;20797;-87
2023/09/02 05:01:13;;;;;;;18.92;4.00;;;;;;;;;;5017068;28;20452;-87
2023/09/02 05:03:43;;;;;;;19.38;4.30;;;;;;;;;;4982797;28;20433;-89
2023/09/02 05:06:12;;;;;;;17.92;4.10;;;;;;;;;;4982757;28;20481;-87
2023/09/02 05:08:42;;;;;;;19.70;4.50;;;;;;;;;;4990910;28;20430;-82
2023/09/02 05:11:11;;;;;;;20.57;5.33;;;;;;;;;;4984708;28;20887;-82
2023/09/02 05:13:38;;;;;;;21.58;5.15;;;;;;;;;;5011963;28;20448;-80
2023/09/02 05:16:05;;;;;;;21.60;5.53;;;;;;;;;;4987418;28;20484;-80
2023/09/02 05:18:32;;;;;;;23.90;6.15;;;;;;;;;;4986666;28;20425;-81
2023/09/02 05:20:59;;;;;;;21.60;5.80;;;;;;;;;;4967950;28;20916;-82
2023/09/02 05:23:25;;;;;;;24.40;6.15;;;;;;;;;;4995239;28;20432;-82
2023/09/02 05:25:54;;;;;;;23.67;6.22;;;;;;;;;;4997362;28;20754;-81
2023/09/02 05:28:23;;;;;;;23.83;6.30;;;;;;;;;;4980458;28;20994;-80
2023/09/02 05:30:53;;;;;;;23.55;5.90;;;;;;;;;;4982807;28;20430;-80
2023/09/02 05:33:19;;;;;;;25.95;6.03;;;;;;;;;;4981059;28;20758;-83
2023/09/02 05:35:47;;;;;;;23.10;6.60;;;;;;;;;;5017793;28;20416;-81
2023/09/02 05:38:14;;;;;;;21.45;6.20;;;;;;;;;;4984058;28;20771;-80
2023/09/02 05:40:41;;;;;;;21.80;5.97;;;;;;;;;;4978431;28;20519;-80
2023/09/02 05:43:08;;;;;;;24.13;5.65;;;;;;;;;;4985836;28;20430;-80
2023/09/02 05:45:36;;;;;;;26.00;6.73;;;;;;;;;;4981471;28;20419;-80
2023/09/02 05:48:04;;;;;;;23.30;7.13;;;;;;;;;;4984373;28;20419;-81
2023/09/02 05:50:31;;;;;;;25.13;6.32;;;;;;;;;;4981532;28;20513;-82
2023/09/02 05:52:58;;;;;;;21.23;5.85;;;;;;;;;;4978903;28;20793;-82
2023/09/02 05:55:25;;;;;;;20.58;5.68;;;;;;;;;;4982874;28;20418;-82
2023/09/02 05:57:52;;;;;;;24.30;6.07;;;;;;;;;;4982049;28;20412;-83
2023/09/02 06:00:18;;;;;;;21.20;5.93;;;;;;;;;;4978057;28;20416;-81
2023/09/02 06:02:46;;;;;;;22.13;5.65;;;;;;;;;;4980037;28;20430;-83
2023/09/02 06:05:13;;;;;;;21.90;5.43;;;;;;;;;;4984609;28;20416;-81
2023/09/02 06:07:40;;;;;;;23.77;6.15;;;;;;;;;;4989592;28;20411;-81
2023/09/02 06:10:07;;;;;;;24.23;5.60;;;;;;;;;;4984276;28;20462;-81
2023/09/02 06:12:34;;;;;;;23.85;5.70;;;;;;;;;;4978716;28;20408;-81
2023/09/02 06:15:00;;;;;;;22.65;5.20;;;;;;;;;;4988329;28;20807;-79
2023/09/02 06:17:30;;;;;;;22.13;5.95;;;;;;;;;;4987205;28;20416;-81
2023/09/02 06:19:59;;;;;;;21.58;4.90;;;;;;;;;;5014926;28;20415;-79
2023/09/02 06:22:26;;;;;;;22.73;5.47;;;;;;;;;;4970684;28;20469;-81
2023/09/02 06:24:53;;;;;;;19.60;4.93;;;;;;;;;;4985021;28;20437;-80
2023/09/02 06:27:20;;;;;;;19.65;4.50;;;;;;;;;;4972856;28;20418;-79
2023/09/02 06:29:47;;;;;;;16.75;3.38;;;;;;;;;;4979630;28;20416;-80
2023/09/02 06:32:14;;;;;;;19.67;3.38;;;;;;;;;;4967574;28;20432;-80
2023/09/02 06:34:40;;;;;;;16.83;3.13;;;;;;;;;;4972290;28;20418;-80
2023/09/02 06:37:08;;;;;;;16.73;3.07;;;;;;;;;;5015342;28;20551;-80
2023/09/02 06:39:35;;;;;;;16.10;2.60;;;;;;;;;;4987746;28;20438;-80
2023/09/02 06:42:02;;;;;;;16.23;2.40;;;;;;;;;;4977789;28;20414;-79
2023/09/02 06:44:32;;;;;;;16.30;3.20;;;;;;;;;;4982267;28;20514;-80
2023/09/02 06:46:59;;;;;;;17.17;2.90;;;;;;;;;;4989503;28;20426;-80
2023/09/02 06:49:25;;;;;;;15.80;3.17;;;;;;;;;;4982005;28;20430;-80
2023/09/02 06:51:52;;;;;;;15.38;2.50;;;;;;;;;;4982552;28;20503;-82
2023/09/02 06:54:20;;;;;;;15.73;2.33;;;;;;;;;;4990033;28;20501;-81
2023/09/02 06:56:47;;;;;;;15.30;2.20;;;;;;;;;;4979343;28;20813;-83
2023/09/02 06:59:13;;;;;;;15.52;2.58;;;;;;;;;;4980319;28;20744;-80
2023/09/02 07:01:40;;;;;;;15.70;2.60;;;;;;;;;;4975702;28;20776;-80
2023/09/02 07:04:07;;;;;;;15.80;2.20;;;;;;;;;;4979182;28;20781;-80
2023/09/02 07:06:34;;;;;;;14.98;2.50;;;;;;;;;;4978285;28;20509;-80
2023/09/02 07:09:00;;;;;;;16.20;2.40;;;;;;;;;;5010152;28;20439;-81
2023/09/02 07:11:28;;;;;;;15.55;2.20;;;;;;;;;;4965425;28;20432;-80
2023/09/02 07:13:56;;;;;;;15.10;2.22;;;;;;;;;;4973721;28;20419;-81
2023/09/02 07:16:23;;;;;;;15.15;2.00;;;;;;;;;;4988030;28;20476;-82
2023/09/02 07:18:50;;;;;;;14.90;2.33;;;;;;;;;;4982621;28;20414;-81
2023/09/02 07:21:22;;;;;;;15.70;2.40;;;;;;;;;;4981530;28;20421;-80
2023/09/02 07:23:49;;;;;;;15.00;2.30;;;;;;;;;;4982940;28;20498;-79
2023/09/02 07:26:15;;;;;;;14.80;2.00;;;;;;;;;;4988735;28;20418;-81
2023/09/02 07:28:43;;;;;;;15.25;2.45;;;;;;;;;;4981809;28;21008;-81
2023/09/02 07:31:10;;;;;;;15.43;2.63;;;;;;;;;;4984025;28;20418;-80
2023/09/02 07:33:37;;;;;;;14.90;2.30;;;;;;;;;;4977446;28;20439;-80
2023/09/02 07:36:07;;;;;;;15.00;2.20;;;;;;;;;;5013749;28;20519;-81
2023/09/02 07:38:33;;;;;;;15.00;2.20;;;;;;;;;;5009993;28;20473;-80
2023/09/02 07:41:00;;;;;;;15.63;2.60;;;;;;;;;;4981250;28;20499;-80
2023/09/02 07:43:27;;;;;;;16.90;2.80;;;;;;;;;;4965469;28;20422;-80
2023/09/02 07:45:55;;;;;;;16.27;2.70;;;;;;;;;;4983779;28;20442;-81
2023/09/02 07:48:22;;;;;;;16.52;3.08;;;;;;;;;;4979686;28;20903;-80
2023/09/02 07:50:49;;;;;;;15.48;2.67;;;;;;;;;;4982947;28;20419;-80
2023/09/02 07:53:16;;;;;;;16.38;2.90;;;;;;;;;;4975120;28;20422;-80
2023/09/02 07:55:43;;;;;;;18.00;2.90;;;;;;;;;;4979942;28;20418;-80
2023/09/02 07:58:09;;;;;;;15.90;2.90;;;;;;;;;;4978484;28;20481;-82
2023/09/02 08:00:36;;;;;;;16.40;3.30;;;;;;;;;;4991121;28;20427;-80
2023/09/02 08:03:05;;;;;;;16.10;3.28;;;;;;;;;;4988062;28;20526;-81
2023/09/02 08:05:32;;;;;;;16.10;3.42;;;;;;;;;;4981840;28;20419;-81
2023/09/02 08:07:58;;;;;;;16.50;3.03;;;;;;;;;;4987435;28;20422;-80
2023/09/02 08:10:25;;;;;;;16.60;3.30;;;;;;;;;;4982255;28;20503;-82
2023/09/02 08:12:52;;;;;;;15.40;2.70;;;;;;;;;;4963135;28;20420;-81
2023/09/02 08:15:19;;;;;;;15.18;2.10;;;;;;;;;;4979205;28;20434;-81
2023/09/02 08:17:46;;;;;;;15.68;2.60;;;;;;;;;;4991424;28;20908;-82
2023/09/02 08:20:14;;;;;;;17.00;2.38;;;;;;;;;;4983363;28;20470;-82
2023/09/02 08:22:43;;;;;;;15.30;2.30;;;;;;;;;;4985432;28;20442;-81
2023/09/02 08:25:10;;;;;;;15.20;2.45;;;;;;;;;;4984834;28;20458;-81
2023/09/02 08:27:36;;;;;;;15.02;2.28;;;;;;;;;;4986932;28;20899;-82
2023/09/02 08:30:04;;;;;;;14.70;2.08;;;;;;;;;;4982830;28;20602;-81
2023/09/02 08:32:31;;;;;;;15.50;2.10;;;;;;;;;;4990287;28;20925;-82
2023/09/02 08:34:58;;;;;;;14.23;1.70;;;;;;;;;;4984900;28;20418;-82
2023/09/02 08:37:26;;;;;;;15.00;2.10;;;;;;;;;;4982144;28;20424;-82
2023/09/02 08:39:53;;;;;;;14.77;2.20;;;;;;;;;;4982089;28;20897;-82
2023/09/02 08:42:20;;;;;;;15.25;1.80;;;;;;;;;;4988368;28;20412;-81
2023/09/02 08:44:48;;;;;;;15.70;1.92;;;;;;;;;;5014556;28;20436;-81
2023/09/02 08:47:15;;;;;;;14.55;2.00;;;;;;;;;;4990977;28;20482;-82
2023/09/02 08:49:42;;;;;;;14.50;1.80;;;;;;;;;;4986774;28;20416;-81
2023/09/02 08:52:10;;;;;;;14.07;1.75;;;;;;;;;;4983588;28;20423;-81
2023/09/02 08:54:38;;;;;;;14.70;1.70;;;;;;;;;;4990716;28;20422;-82
2023/09/02 08:57:05;;;;;;;15.05;2.00;;;;;;;;;;4982546;28;20490;-81
2023/09/02 08:59:33;;;;;;;14.40;1.90;;;;;;;;;;4984692;28;20469;-82
2023/09/02 09:01:59;;;;;;;14.68;1.63;;;;;;;;;;4986075;28;20913;-82
2023/09/02 09:04:29;;;;;;;14.70;1.90;;;;;;;;;;4985668;28;20839;-79
2023/09/02 09:06:55;;;;;;;14.07;1.60;;;;;;;;;;4981263;28;20421;-79
2023/09/02 09:09:23;;;;;;;14.10;1.60;;;;;;;;;;4989199;28;20434;-81
2023/09/02 09:11:52;;;;;;;14.85;1.80;;;;;;;;;;5019076;28;20411;-81
2023/09/02 09:14:22;;;;;;;14.10;1.50;;;;;;;;;;4985429;28;20901;-80
2023/09/02 09:16:49;;;;;;;16.70;1.60;;;;;;;;;;4982942;28;20426;-82
2023/09/02 09:19:17;;;;;;;14.50;1.95;;;;;;;;;;4989576;28;20433;-82
2023/09/02 09:21:44;;;;;;;14.30;1.50;;;;;;;;;;5018630;28;20509;-79
2023/09/02 09:24:12;;;;;;;14.00;1.60;;;;;;;;;;5000147;28;20557;-81
2023/09/02 09:26:41;;;;;;;14.82;1.60;;;;;;;;;;4977107;28;20918;-80
2023/09/02 09:29:12;;;;;;;13.95;1.40;;;;;;;;;;4986704;28;20418;-81
2023/09/02 09:31:39;;;;;;;15.10;1.52;;;;;;;;;;4988761;28;20412;-81
2023/09/02 09:34:06;;;;;;;14.05;1.60;;;;;;;;;;4980804;28;20419;-82
2023/09/02 09:36:33;;;;;;;14.15;1.50;;;;;;;;;;4966086;28;20420;-80
2023/09/02 09:39:01;;;;;;;14.40;1.60;;;;;;;;;;4989934;28;20461;-83
2023/09/02 09:41:27;;;;;;;14.23;1.70;;;;;;;;;;4989727;28;20428;-86
2023/09/02 09:44:04;;;;;;;14.50;1.90;;;;;;;;;;4982028;28;20856;-83
2023/09/02 09:46:34;;;;;;;14.40;1.70;;;;;;;;;;4983747;28;20418;-85
2023/09/02 09:49:03;;;;;;;14.70;2.00;;;;;;;;;;4980489;28;20507;-81
2023/09/02 09:51:30;;;;;;;14.38;1.55;;;;;;;;;;5016630;28;21081;-82
2023/09/02 09:53:57;;;;;;;14.00;1.40;;;;;;;;;;4990567;28;20826;-82
2023/09/02 09:56:24;;;;;;;14.70;1.50;;;;;;;;;;4981601;28;20416;-81
2023/09/02 09:58:51;;;;;;;14.37;1.47;;;;;;;;;;4985653;28;20953;-83
2023/09/02 10:01:21;;;;;;;13.90;1.40;;;;;;;;;;4983356;28;20434;-81
2023/09/02 10:03:51;;;;;;;14.70;1.30;;;;;;;;;;4972654;28;20452;-81
2023/09/02 10:06:19;;;;;;;14.43;1.55;;;;;;;;;;4987690;28;20750;-80
2023/09/02 10:08:50;;;;;;;14.50;1.40;;;;;;;;;;4986343;28;20478;-81
2023/09/02 10:11:21;;;;;;;13.90;1.20;;;;;;;;;;4988756;28;20539;-80
2023/09/02 10:13:49;;;;;;;14.10;1.20;;;;;;;;;;5012234;28;20861;-79
2023/09/02 10:16:16;;;;;;;14.77;1.40;;;;;;;;;;4983522;28;20911;-81
2023/09/02 10:18:44;;;;;;;13.75;1.10;;;;;;;;;;4986710;28;20434;-80
2023/09/02 10:21:13;;;;;;;13.80;1.30;;;;;;;;;;4980449;28;20980;-80
2023/09/02 10:23:43;;;;;;;13.55;1.20;;;;;;;;;;4979824;28;20770;-80
2023/09/02 10:26:14;;;;;;;14.67;1.40;;;;;;;;;;4979427;28;20423;-80
2023/09/02 10:28:41;;;;;;;13.63;1.20;;;;;;;;;;4987670;28;20827;-80
2023/09/02 10:31:12;;;;;;;14.20;1.30;;;;;;;;;;4988438;28;20423;-80
2023/09/02 10:33:43;;;;;;;13.70;1.25;;;;;;;;;;4982447;28;20428;-81
2023/09/02 10:36:10;;;;;;;13.60;1.17;;;;;;;;;;4978134;28;20766;-82
2023/09/02 10:38:40;;;;;;;14.33;1.40;;;;;;;;;;5001587;28;20458;-81
2023/09/02 10:41:08;;;;;;;13.50;1.30;;;;;;;;;;4984398;28;20752;-80
2023/09/02 10:43:36;;;;;;;13.43;1.13;;;;;;;;;;4982002;28;20416;-81
2023/09/02 10:46:03;;;;;;;13.60;1.30;;;;;;;;;;5001697;28;20506;-80
2023/09/02 10:48:29;;;;;;;13.60;1.20;;;;;;;;;;4982877;28;20510;-78
2023/09/02 10:50:56;;;;;;;13.50;1.10;;;;;;;;;;4979651;28;20751;-80
2023/09/02 10:53:38;;;;;;;13.65;1.10;;;;;;;;;;4986371;28;20442;-81
2023/09/02 10:56:06;;;;;;;15.10;1.10;;;;;;;;;;4982421;28;20975;-82
2023/09/02 10:58:45;;;;;;;14.13;1.40;;;;;;;;;;4988020;28;20481;-81
2023/09/02 11:01:12;;;;;;;13.48;1.10;;;;;;;;;;4979477;28;20418;-81
2023/09/02 11:03:45;;;;;;;14.00;1.50;;;;;;;;;;4988060;28;20519;-80
2023/09/02 11:06:14;;;;;;;13.70;1.30;;;;;;;;;;4986054;28;20496;-82
2023/09/02 11:08:43;;;;;;;13.60;1.10;;;;;;;;;;4980944;28;20416;-79
2023/09/02 11:11:12;;;;;;;14.32;1.50;;;;;;;;;;4970472;28;20427;-79
2023/09/02 11:13:58;;;;;;;13.60;1.30;;;;;;;;;;4987411;28;20972;-78
2023/09/02 11:16:24;;;;;;;13.98;1.40;;;;;;;;;;4981928;28;20395;-82
2023/09/02 11:18:52;;;;;;;13.93;1.20;;;;;;;;;;4991782;28;20411;-80
2023/09/02 11:21:35;;;;;;;13.63;1.10;;;;;;;;;;4986478;28;20552;-81
2023/09/02 11:24:14;;;;;;;15.40;1.13;;;;;;;;;;4982158;28;20441;-79
2023/09/02 11:26:52;;;;;;;14.30;1.20;;;;;;;;;;5009534;28;20439;-79
2023/09/02 11:29:20;;;;;;;13.60;1.10;;;;;;;;;;5011555;28;20510;-80
2023/09/02 11:31:53;;;;;;;13.70;1.10;;;;;;;;;;4983800;28;20498;-80
2023/09/02 11:34:20;;;;;;;13.80;1.30;;;;;;;;;;4991214;28;20451;-82
2023/09/02 11:36:48;;;;;;;13.70;1.30;;;;;;;;;;4984135;28;20827;-80
2023/09/02 11:39:15;;;;;;;13.70;1.30;;;;;;;;;;4980575;28;20421;-80
2023/09/02 11:41:41;;;;;;;13.93;1.50;;;;;;;;;;4987027;28;20433;-80
2023/09/02 11:44:25;;;;;;;14.60;1.20;;;;;;;;;;4994285;28;20428;-80
2023/09/02 11:46:52;;;;;;;13.70;1.20;;;;;;;;;;4986639;28;20421;-80
2023/09/02 11:49:23;;;;;;;13.90;1.30;;;;;;;;;;4984671;28;20427;-80
2023/09/02 11:51:50;;;;;;;14.20;1.30;;;;;;;;;;4982257;28;20497;-79
2023/09/02 11:54:16;;;;;;;15.15;1.30;;;;;;;;;;4987170;28;20408;-80
2023/09/02 11:56:53;;;;;;;14.20;1.40;;;;;;;;;;4980929;28;20420;-79
2023/09/02 11:59:20;;;;;;;15.10;1.50;;;;;;;;;;4984465;28;20416;-77
2023/09/02 12:02:05;;;;;;;14.20;1.20;;;;;;;;;;4991428;28;20466;-79
2023/09/02 12:04:34;;;;;;;14.00;1.40;;;;;;;;;;4988400;28;20410;-80
2023/09/02 12:07:00;;;;;;;13.60;1.20;;;;;;;;;;4992723;28;20410;-79
2023/09/02 12:09:29;;;;;;;13.52;1.25;;;;;;;;;;4984533;28;21317;-82
2023/09/02 12:11:56;;;;;;;14.20;1.30;;;;;;;;;;4984716;28;20420;-80
2023/09/02 12:14:23;;;;;;;14.00;1.30;;;;;;;;;;4973605;28;20424;-80
2023/09/02 12:16:51;;;;;;;18.13;1.60;;;;;;;;;;4983957;28;20416;-80
2023/09/02 12:19:18;;;;;;;13.65;1.20;;;;;;;;;;4986795;28;20477;-80
2023/09/02 12:21:47;;;;;;;14.50;1.30;;;;;;;;;;4988392;28;20452;-79
2023/09/02 12:24:14;;;;;;;14.30;1.50;;;;;;;;;;4991566;28;20462;-79
2023/09/02 12:26:44;;;;;;;13.98;1.33;;;;;;;;;;4982976;28;20526;-80
2023/09/02 12:29:13;;;;;;;14.32;1.42;;;;;;;;;;4987351;28;20410;-80
2023/09/02 12:31:51;;;;;;;15.35;1.40;;;;;;;;;;4985288;28;20458;-80
2023/09/02 12:34:18;;;;;;;13.90;1.30;;;;;;;;;;4989868;28;20478;-80
2023/09/02 12:36:45;;;;;;;15.65;1.30;;;;;;;;;;4990911;28;20442;-80
2023/09/02 12:39:20;;;;;;;13.80;1.30;;;;;;;;;;4987016;28;20433;-81
2023/09/02 12:41:47;;;;;;;13.90;1.50;;;;;;;;;;5017684;28;20406;-79
2023/09/02 12:44:15;;;;;;;15.00;1.40;;;;;;;;;;4993446;28;20454;-80
2023/09/02 12:46:42;;;;;;;14.80;1.48;;;;;;;;;;4983827;28;20436;-79
2023/09/02 12:49:10;;;;;;;13.90;1.40;;;;;;;;;;5006484;28;20425;-80
2023/09/02 12:51:37;;;;;;;13.80;1.30;;;;;;;;;;4985599;28;20514;-80
2023/09/02 12:54:07;;;;;;;14.00;1.30;;;;;;;;;;4999736;28;20421;-80
2023/09/02 12:56:33;;;;;;;14.90;1.50;;;;;;;;;;4984067;28;20425;-79
2023/09/02 12:59:00;;;;;;;14.90;1.40;;;;;;;;;;4982415;28;20427;-77
2023/09/02 13:01:27;;;;;;;14.40;1.30;;;;;;;;;;4982336;28;20478;-79
2023/09/02 13:03:53;;;;;;;14.00;1.40;;;;;;;;;;4982443;28;20412;-79
2023/09/02 13:06:23;;;;;;;13.73;1.40;;;;;;;;;;4982205;28;20424;-79
2023/09/02 13:08:50;;;;;;;15.10;1.55;;;;;;;;;;4986100;28;20406;-80
2023/09/02 13:11:18;;;;;;;14.57;1.70;;;;;;;;;;5012406;28;20432;-79
2023/09/02 13:13:45;;;;;;;15.10;1.77;;;;;;;;;;4999870;28;20459;-79
2023/09/02 13:16:11;;;;;;;14.10;1.35;;;;;;;;;;4990381;28;20440;-79
2023/09/02 13:18:38;;;;;;;13.80;1.60;;;;;;;;;;4989201;28;20455;-79
2023/09/02 13:21:05;;;;;;;14.65;1.95;;;;;;;;;;4984937;28;20537;-80
2023/09/02 13:23:33;;;;;;;13.63;1.20;;;;;;;;;;4987973;28;20410;-78
2023/09/02 13:26:00;;;;;;;14.40;1.52;;;;;;;;;;4996319;28;20754;-79
2023/09/02 13:28:34;;;;;;;14.70;1.70;;;;;;;;;;4978924;28;20423;-80
2023/09/02 13:31:01;;;;;;;13.90;1.50;;;;;;;;;;4997775;28;20851;-79
2023/09/02 13:33:28;;;;;;;14.30;1.77;;;;;;;;;;5012516;28;20420;-78
2023/09/02 13:35:55;;;;;;;14.10;1.60;;;;;;;;;;4981090;28;20617;-78
2023/09/02 13:38:23;;;;;;;15.18;1.88;;;;;;;;;;4983038;28;20450;-79
2023/09/02 13:40:51;;;;;;;14.07;1.70;;;;;;;;;;5013665;28;20422;-79
2023/09/02 13:43:19;;;;;;;14.30;1.50;;;;;;;;;;4984283;28;20526;-79
2023/09/02 13:45:47;;;;;;;14.68;1.55;;;;;;;;;;4987959;28;20477;-79
2023/09/02 13:48:14;;;;;;;15.30;1.60;;;;;;;;;;4988767;28;20428;-79
2023/09/02 13:50:41;;;;;;;14.40;1.60;;;;;;;;;;4980105;28;20426;-79
2023/09/02 13:53:09;;;;;;;13.70;1.50;;;;;;;;;;4981073;28;20417;-78
2023/09/02 13:55:36;;;;;;;13.10;1.87;;;;;;;;;;4986149;28;20745;-78
2023/09/02 13:58:05;;;;;;;13.30;1.73;;;;;;;;;;4986566;28;20439;-78
2023/09/02 14:00:32;;;;;;;;;;;;;;;;;;4990687;28;20377;-76
2023/09/02 14:03:00;;;;;;;;;;;;;;;;;;5013593;28;20426;-77
2023/09/02 14:05:27;;;;;;;13.63;1.33;;;;;;;;;;4999442;28;20213;-79
2023/09/02 14:07:54;;;;;;;;;;;;;;;;;;4965782;28;20325;-78
2023/09/02 14:10:21;;;;;;;;;;;;;;;;;;5015326;28;19928;-77
2023/09/02 14:12:47;;;;;;;;;;;;;;;;;;4983039;28;20343;-75
2023/09/02 14:15:15;;;;;;;;;;;;;;;;;;5013833;28;19922;-78
2023/09/02 14:17:42;;;;;;;;;;;;;;;;;;5015545;28;19922;-75
2023/09/02 14:20:09;;;;;;;;;;;;;;;;;;5015319;28;19925;-77
2023/09/02 14:22:36;;;;;;;;;;;;;;;;;;5005432;28;19926;-76
2023/09/02 14:25:02;;;;;;;;;;;;;;;;;;4985689;28;19925;-78
2023/09/02 14:27:28;;;;;;;;;;;;;;;;;;5016208;28;19929;-76
2023/09/02 14:29:55;;;;;;;;;;;;;;;;;;4980715;28;19922;-78
2023/09/02 14:32:22;;;;;;;;;;;;;;;;;;5018523;28;19964;-76
2023/09/02 14:34:49;;;;;;;;;;;;;;;;;;4991719;28;19936;-77
2023/09/02 14:37:18;;;;;;;;;;;;;;;;;;5012877;28;20367;-77
2023/09/02 14:39:44;;;;;;;;;;;;;;;;;;4983986;28;19946;-79